Time;durP1;ratioP1;P1;durP2;ratioP2;P2;SDS_P1;SDS_P2;PMS_P1;PMS_P2;Temp;Humidity;BMP_temperature;BMP_pressure;BME280_temperature;BME280_humidity;BME280_pressure;Samples;Min_cycle;Max_cycle;Signal;HPM_P1;HPM_P2
2022/11/28 00:00:32;;;;;;;;;;;;;;;6.89;100.00;100907.16;5029972;28;20003;-83
2022/11/28 00:02:57;;;;;;;;;;;;;;;6.93;100.00;100906.97;5029302;28;19913;-82
2022/11/28 00:05:22;;;;;;;;;;;;;;;6.92;100.00;100908.75;5030039;28;19917;-83
2022/11/28 00:07:48;;;;;;;;;;;;;;;6.94;100.00;100908.66;5030210;28;20007;-83
2022/11/28 00:10:13;;;;;;;;;;;;;;;6.96;100.00;100906.78;5030509;28;19909;-83
2022/11/28 00:12:38;;;;;;;;;;;;;;;6.97;100.00;100905.84;5030418;28;19913;-83
2022/11/28 00:15:04;;;;;;;;;;;;;;;6.99;100.00;100898.75;5029911;28;20258;-83
2022/11/28 00:17:29;;;;;;;;;;;;;;;7.01;100.00;100905.59;5030092;28;19920;-83
2022/11/28 00:19:54;;;;;;;;;;;;;;;7.03;100.00;100897.66;5031128;28;19934;-83
2022/11/28 00:22:20;;;;;;;;;;;;;;;7.04;100.00;100894.94;5029028;28;20396;-82
2022/11/28 00:24:45;;;;;;;;;;;;;;;7.07;100.00;100891.31;5028546;28;19924;-83
2022/11/28 00:27:10;;;;;;;;;;;;;;;7.09;100.00;100902.53;5030187;28;20003;-83
2022/11/28 00:29:37;;;;;;;;;;;;;;;7.13;100.00;100893.56;5030122;28;19909;-83
2022/11/28 00:32:05;;;;;;;;;;;;;;;7.16;100.00;100898.59;5030381;28;19913;-83
2022/11/28 00:34:30;;;;;;;;;;;;;;;7.20;100.00;100887.03;5030167;28;19912;-83
2022/11/28 00:36:55;;;;;;;;;;;;;;;7.25;100.00;100874.53;5028473;28;19986;-83
2022/11/28 00:39:20;;;;;;;;;;;;;;;7.27;100.00;100875.28;5028959;28;19913;-82
2022/11/28 00:41:46;;;;;;;;;;;;;;;7.30;100.00;100890.81;5026901;28;19919;-83
2022/11/28 00:44:11;;;;;;;;;;;;;;;7.33;100.00;100880.16;5027935;28;19912;-83
2022/11/28 00:46:36;;;;;;;;;;;;;;;7.34;100.00;100887.06;5028791;28;19920;-83
2022/11/28 00:49:02;;;;;;;;;;;;;;;7.37;100.00;100865.09;5029583;28;19943;-83
2022/11/28 00:51:29;;;;;;;;;;;;;;;7.38;100.00;100875.47;5044402;28;19920;-83
2022/11/28 00:53:55;;;;;;;;;;;;;;;7.39;100.00;100871.91;5049624;28;19909;-83
2022/11/28 00:56:22;;;;;;;;;;;;;;;7.41;100.00;100862.19;5040554;28;19959;-83
2022/11/28 00:58:48;;;;;;;;;;;;;;;7.42;100.00;100869.13;5023466;28;19943;-83
2022/11/28 01:01:21;;;;;;;;;;;;;;;7.42;100.00;100876.13;5027688;28;19909;-83
2022/11/28 01:03:49;;;;;;;;;;;;;;;7.43;100.00;100868.19;5027739;28;20661;-83
2022/11/28 01:06:21;;;;;;;;;;;;;;;7.43;100.00;100869.97;5028677;28;19916;-83
2022/11/28 01:08:47;;;;;;;;;;;;;;;7.43;100.00;100883.88;5021761;28;19949;-83
2022/11/28 01:11:12;;;;;;;;;;;;;;;7.44;100.00;100875.09;5023575;28;19948;-83
2022/11/28 01:13:38;;;;;;;;;;;;;;;7.44;100.00;100866.41;5023735;28;20364;-83
2022/11/28 01:16:03;;;;;;;;;;;;;;;7.44;100.00;100874.25;5027763;28;19913;-83
2022/11/28 01:18:28;;;;;;;;;;;;;;;7.43;100.00;100870.81;5026732;28;19909;-83
2022/11/28 01:20:53;;;;;;;;;;;;;;;7.43;100.00;100869.97;5027668;28;19947;-83
2022/11/28 01:23:22;;;;;;;;;;;;;;;7.42;100.00;100869.13;5027076;28;19913;-82
2022/11/28 01:25:47;;;;;;;;;;;;;;;7.42;100.00;100869.13;5026564;28;19917;-83
2022/11/28 01:28:12;;;;;;;;;;;;;;;7.40;100.00;100870.16;5029482;28;19915;-83
2022/11/28 01:30:37;;;;;;;;;;;;;;;7.40;100.00;100871.00;5024172;28;20587;-83
2022/11/28 01:33:03;;;;;;;;;;;;;;;7.41;100.00;100872.66;5025848;28;20358;-83
2022/11/28 01:35:28;;;;;;;;;;;;;;;7.40;100.00;100873.59;5036867;28;20008;-81
2022/11/28 01:37:53;;;;;;;;;;;;;;;7.41;100.00;100877.91;5028362;28;19916;-81
2022/11/28 01:40:21;;;;;;;;;;;;;;;7.42;100.00;100874.34;5027241;28;19940;-81
2022/11/28 01:42:47;;;;;;;;;;;;;;;7.43;100.00;100880.44;5030738;28;19909;-82
2022/11/28 01:45:21;;;;;;;;;;;;;;;7.42;100.00;100879.59;5028314;28;20395;-82
2022/11/28 01:47:47;;;;;;;;;;;;;;;7.39;100.00;100874.53;5028933;28;19916;-82
2022/11/28 01:50:12;;;;;;;;;;;;;;;7.40;100.00;100876.22;5027966;28;19913;-82
2022/11/28 01:52:39;;;;;;;;;;;;;;;7.36;100.00;100869.50;5028679;28;19924;-81
2022/11/28 01:55:05;;;;;;;;;;;;;;;7.34;100.00;100871.34;5030099;28;20570;-81
2022/11/28 01:57:31;;;;;;;;;;;;;;;7.33;100.00;100872.28;5032678;28;19913;-81
2022/11/28 02:00:08;;;;;;;;;;;;;;;7.30;100.00;100864.63;5032977;28;19919;-81
2022/11/28 02:02:36;;;;;;;;;;;;;;;7.28;100.00;100866.50;5033137;28;20297;-81
2022/11/28 02:05:01;;;;;;;;;;;;;;;7.26;100.00;100870.16;5032078;28;19928;-81
2022/11/28 02:07:26;;;;;;;;;;;;;;;7.25;100.00;100860.59;5030956;28;19917;-81
2022/11/28 02:09:52;;;;;;;;;;;;;;;7.23;100.00;100860.69;5032510;28;19992;-80
2022/11/28 02:12:29;;;;;;;;;;;;;;;7.22;100.00;100848.56;5030417;28;20594;-80
2022/11/28 02:15:07;;;;;;;;;;;;;;;7.22;100.00;100853.78;5029888;28;19909;-80
2022/11/28 02:17:38;;;;;;;;;;;;;;;7.22;100.00;100849.41;5032579;28;19916;-83
2022/11/28 02:20:09;;;;;;;;;;;;;;;7.22;100.00;100845.94;5031086;28;19952;-83
2022/11/28 02:22:43;;;;;;;;;;;;;;;7.21;100.00;100847.72;5031649;28;19948;-83
2022/11/28 02:25:12;;;;;;;;;;;;;;;7.21;100.00;100849.50;5030378;28;19925;-82
2022/11/28 02:27:54;;;;;;;;;;;;;;;7.21;100.00;100847.72;5031021;28;19955;-83
2022/11/28 02:30:37;;;;;;;;;;;;;;;7.20;100.00;100848.66;5024066;28;19917;-83
2022/11/28 02:33:12;;;;;;;;;;;;;;;7.20;100.00;100846.03;5029188;28;19917;-83
2022/11/28 02:35:45;;;;;;;;;;;;;;;7.19;100.00;100844.31;5029599;28;19971;-83
2022/11/28 02:38:19;;;;;;;;;;;;;;;7.19;100.00;100840.84;5020672;28;19913;-83
2022/11/28 02:40:56;;;;;;;;;;;;;;;7.16;100.00;100843.66;5030590;28;20301;-83
2022/11/28 02:43:28;;;;;;;;;;;;;;;7.15;100.00;100848.06;5029959;28;19909;-82
2022/11/28 02:45:57;;;;;;;;;;;;;;;7.15;100.00;100841.97;5029122;28;19921;-82
2022/11/28 02:48:28;;;;;;;;;;;;;;;7.14;100.00;100842.91;5027172;28;20062;-83
2022/11/28 02:51:12;;;;;;;;;;;;;;;7.10;100.00;100841.41;5040927;28;19912;-83
2022/11/28 02:53:38;;;;;;;;;;;;;;;7.09;100.00;100848.41;5064744;28;19958;-83
2022/11/28 02:56:03;;;;;;;;;;;;;;;7.09;100.00;100844.97;5030271;28;20312;-83
2022/11/28 02:58:28;;;;;;;;;;;;;;;7.05;100.00;100835.63;5031162;28;19990;-82
2022/11/28 03:00:54;;;;;;;;;;;;;;;7.05;100.00;100838.22;5030500;28;19913;-82
2022/11/28 03:03:45;;;;;;;;;;;;;;;7.04;100.00;100836.56;5039610;28;20152;-82
2022/11/28 03:06:29;;;;;;;;;;;;;;;7.04;100.00;100831.31;5027297;28;20015;-82
2022/11/28 03:09:09;;;;;;;;;;;;;;;7.02;100.00;100838.41;5029920;28;19916;-82
2022/11/28 03:11:53;;;;;;;;;;;;;;;7.00;100.00;100829.81;5029455;28;20008;-82
2022/11/28 03:14:37;;;;;;;;;;;;;;;7.01;100.00;100815.81;5019722;28;19909;-82
2022/11/28 03:17:20;;;;;;;;;;;;;;;7.00;100.00;100825.44;5022680;28;19933;-82
2022/11/28 03:19:59;;;;;;;;;;;;;;;7.00;100.00;100821.97;5030983;28;20324;-82
2022/11/28 03:22:24;;;;;;;;;;;;;;;7.01;100.00;100823.66;5024413;28;20271;-82
2022/11/28 03:24:54;;;;;;;;;;;;;;;7.01;100.00;100826.28;5030149;28;19927;-82
2022/11/28 03:27:25;;;;;;;;;;;;;;;7.01;100.00;100821.03;5030620;28;19912;-83
2022/11/28 03:29:59;;;;;;;;;;;;;;;7.00;100.00;100822.81;5032025;28;19913;-82
2022/11/28 03:32:29;;;;;;;;;;;;;;;6.98;100.00;100811.59;5030982;28;19957;-83
2022/11/28 03:35:17;;;;;;;;;;;;;;;6.99;100.00;100817.69;5031343;28;20321;-82
2022/11/28 03:37:48;;;;;;;;;;;;;;;6.99;100.00;100822.91;5008665;28;19914;-79
2022/11/28 03:40:16;;;;;;;;;;;;;;;6.99;100.00;100817.69;5023469;28;19913;-79
2022/11/28 03:42:44;;;;;;;;;;;;;;;6.99;100.00;100821.13;5030199;28;19935;-82
2022/11/28 03:45:14;;;;;;;;;;;;;;;6.99;100.00;100817.69;5031516;28;19928;-82
2022/11/28 03:47:46;;;;;;;;;;;;;;;6.98;100.00;100818.59;5030669;28;19913;-81
2022/11/28 03:50:16;;;;;;;;;;;;;;;6.99;100.00;100822.91;5035885;28;20270;-81
2022/11/28 03:52:49;;;;;;;;;;;;;;;6.98;100.00;100816.00;5046592;28;20270;-81
2022/11/28 03:55:20;;;;;;;;;;;;;;;6.98;100.00;100816.84;5025843;28;20277;-80
2022/11/28 03:57:54;;;;;;;;;;;;;;;6.98;100.00;100818.59;5030790;28;20020;-81
2022/11/28 04:00:19;;;;;;;;;;;;;;;6.97;100.00;100822.16;5028268;28;20007;-81
2022/11/28 04:03:14;;;;;;;;;;;;;;;6.97;100.00;100820.38;5029982;28;19992;-81
2022/11/28 04:05:42;;;;;;;;;;;;;;;6.97;100.00;100819.53;5029771;28;20007;-81
2022/11/28 04:08:20;;;;;;;;;;;;;;;6.97;100.00;100824.78;5029674;28;20396;-81
2022/11/28 04:10:55;;;;;;;;;;;;;;;6.97;100.00;100825.63;5023693;28;20354;-81
2022/11/28 04:13:23;;;;;;;;;;;;;;;6.98;100.00;100829.06;5028832;28;20308;-81
2022/11/28 04:16:08;;;;;;;;;;;;;;;6.96;100.00;100823.94;5030651;28;19909;-81
2022/11/28 04:18:52;;;;;;;;;;;;;;;6.97;100.00;100827.38;5028223;28;20361;-81
2022/11/28 04:21:20;;;;;;;;;;;;;;;6.97;100.00;100830.84;5027170;28;20407;-81
2022/11/28 04:23:46;;;;;;;;;;;;;;;6.98;100.00;100821.22;5030600;28;19975;-81
2022/11/28 04:26:41;;;;;;;;;;;;;;;6.98;100.00;100821.22;5028079;28;20020;-82
2022/11/28 04:29:09;;;;;;;;;;;;;;;6.99;100.00;100828.13;5026716;28;19916;-82
2022/11/28 04:31:36;;;;;;;;;;;;;;;6.97;100.00;100828.22;5028150;28;19913;-81
2022/11/28 04:34:04;;;;;;;;;;;;;;;6.98;100.00;100831.69;5029518;28;19935;-81
2022/11/28 04:36:30;;;;;;;;;;;;;;;6.96;100.00;100831.78;5028036;28;19944;-81
2022/11/28 04:38:57;;;;;;;;;;;;;;;6.96;100.00;100834.41;5029291;28;19964;-81
2022/11/28 04:41:33;;;;;;;;;;;;;;;6.96;100.00;100828.31;5028831;28;19913;-81
2022/11/28 04:44:05;;;;;;;;;;;;;;;6.95;100.00;100824.88;5029164;28;19913;-81
2022/11/28 04:46:35;;;;;;;;;;;;;;;6.96;100.00;100828.31;5028903;28;19913;-81
2022/11/28 04:49:00;;;;;;;;;;;;;;;6.96;100.00;100830.94;5023463;28;19917;-81
2022/11/28 04:51:55;;;;;;;;;;;;;;;6.95;100.00;100824.03;5034725;28;19920;-80
2022/11/28 04:54:38;;;;;;;;;;;;;;;6.95;100.00;100826.63;5026001;28;19913;-80
2022/11/28 04:57:22;;;;;;;;;;;;;;;6.95;100.00;100822.25;5011121;28;19917;-81
2022/11/28 04:59:47;;;;;;;;;;;;;;;6.96;100.00;100823.09;5029409;28;19913;-81
2022/11/28 05:02:13;;;;;;;;;;;;;;;6.96;100.00;100823.94;5029014;28;19916;-81
2022/11/28 05:04:39;;;;;;;;;;;;;;;6.98;100.00;100823.84;5024654;28;20355;-81
2022/11/28 05:07:05;;;;;;;;;;;;;;;6.97;100.00;100822.16;5025972;28;19955;-82
2022/11/28 05:09:30;;;;;;;;;;;;;;;6.97;100.00;100832.63;5028277;28;19920;-81
2022/11/28 05:11:55;;;;;;;;;;;;;;;6.97;100.00;100825.63;5029153;28;19913;-81
2022/11/28 05:14:21;;;;;;;;;;;;;;;6.98;100.00;100831.69;5028693;28;19913;-81
2022/11/28 05:16:46;;;;;;;;;;;;;;;6.99;100.00;100838.59;5029007;28;19956;-81
2022/11/28 05:19:11;;;;;;;;;;;;;;;6.99;100.00;100836.00;5029873;28;20405;-82
2022/11/28 05:21:37;;;;;;;;;;;;;;;7.00;100.00;100840.28;5024028;28;19943;-81
2022/11/28 05:24:06;;;;;;;;;;;;;;;7.01;100.00;100840.19;5029283;28;19924;-82
2022/11/28 05:26:31;;;;;;;;;;;;;;;7.02;100.00;100833.19;5029399;28;21009;-81
2022/11/28 05:28:57;;;;;;;;;;;;;;;7.01;100.00;100840.19;5030144;28;19959;-82
2022/11/28 05:31:22;;;;;;;;;;;;;;;7.02;100.00;100838.41;5031002;28;19913;-81
2022/11/28 05:33:47;;;;;;;;;;;;;;;7.01;100.00;100837.56;5033791;28;20019;-82
2022/11/28 05:36:13;;;;;;;;;;;;;;;7.02;100.00;100830.56;5031881;28;19963;-82
2022/11/28 05:38:38;;;;;;;;;;;;;;;7.02;100.00;100844.50;5027611;28;20166;-82
2022/11/28 05:41:04;;;;;;;;;;;;;;;7.03;100.00;100848.78;5033922;28;19917;-82
2022/11/28 05:43:29;;;;;;;;;;;;;;;7.04;100.00;100847.84;5031751;28;19980;-82
2022/11/28 05:45:55;;;;;;;;;;;;;;;7.05;100.00;100844.31;5031789;28;20428;-82
2022/11/28 05:48:20;;;;;;;;;;;;;;;7.07;100.00;100841.59;5026395;28;19940;-80
2022/11/28 05:50:45;;;;;;;;;;;;;;;7.07;100.00;100838.97;5033112;28;19909;-80
2022/11/28 05:53:10;;;;;;;;;;;;;;;7.07;100.00;100846.84;5053003;28;20007;-80
2022/11/28 05:55:37;;;;;;;;;;;;;;;7.07;100.00;100847.66;5032946;28;19948;-80
2022/11/28 05:58:02;;;;;;;;;;;;;;;7.08;100.00;100838.88;5021195;28;19921;-80
2022/11/28 06:00:28;;;;;;;;;;;;;;;7.10;100.00;100849.25;5025524;28;19910;-80
2022/11/28 06:02:53;;;;;;;;;;;;;;;7.11;100.00;100843.09;5028464;28;20358;-80
2022/11/28 06:05:19;;;;;;;;;;;;;;;7.10;100.00;100839.63;5013566;28;20263;-80
2022/11/28 06:07:44;;;;;;;;;;;;;;;7.12;100.00;100836.94;5029715;28;20392;-79
2022/11/28 06:10:10;;;;;;;;;;;;;;;7.11;100.00;100838.69;5030485;28;19912;-79
2022/11/28 06:12:35;;;;;;;;;;;;;;;7.12;100.00;100843.00;5032247;28;19913;-79
2022/11/28 06:15:00;;;;;;;;;;;;;;;7.12;100.00;100845.63;5013325;28;19909;-81
2022/11/28 06:17:25;;;;;;;;;;;;;;;7.13;100.00;100846.47;5035148;28;19909;-81
2022/11/28 06:19:50;;;;;;;;;;;;;;;7.12;100.00;100847.41;5032820;28;20365;-81
2022/11/28 06:22:16;;;;;;;;;;;;;;;7.14;100.00;100845.53;5029980;28;19913;-81
2022/11/28 06:24:41;;;;;;;;;;;;;;;7.14;100.00;100854.22;5029820;28;19920;-82
2022/11/28 06:27:06;;;;;;;;;;;;;;;7.15;100.00;100849.81;5030448;28;20309;-83
2022/11/28 06:29:32;;;;;;;;;;;;;;;7.17;100.00;100861.03;5031199;28;19916;-81
2022/11/28 06:31:57;;;;;;;;;;;;;;;7.17;100.00;100861.03;5029926;28;20301;-82
2022/11/28 06:34:23;;;;;;;;;;;;;;;7.18;100.00;100860.09;5027600;28;19917;-82
2022/11/28 06:36:48;;;;;;;;;;;;;;;7.19;100.00;100867.03;5029739;28;19920;-82
2022/11/28 06:39:14;;;;;;;;;;;;;;;7.19;100.00;100861.78;5031429;28;19913;-82
2022/11/28 06:41:40;;;;;;;;;;;;;;;7.19;100.00;100867.03;5028876;28;19923;-83
2022/11/28 06:44:05;;;;;;;;;;;;;;;7.19;100.00;100867.88;5012720;28;19909;-78
2022/11/28 06:46:30;;;;;;;;;;;;;;;7.19;100.00;100856.56;5031160;28;19974;-78
2022/11/28 06:48:56;;;;;;;;;;;;;;;7.19;100.00;100857.41;5030290;28;19963;-78
2022/11/28 06:51:21;;;;;;;;;;;;;;;7.20;100.00;100858.25;5028490;28;20787;-78
2022/11/28 06:53:46;;;;;;;;;;;;;;;7.20;100.00;100858.25;5030899;28;19913;-79
2022/11/28 06:56:13;;;;;;;;;;;;;;;7.20;100.00;100853.00;5030368;28;19987;-79
2022/11/28 06:58:39;;;;;;;;;;;;;;;7.21;100.00;100860.78;5029285;28;19956;-79
2022/11/28 07:01:17;;;;;;;;;;;;;;;7.21;100.00;100857.34;5030055;28;20006;-79
2022/11/28 07:03:43;;;;;;;;;;;;;;;7.21;100.00;100862.56;5030041;28;19908;-79
2022/11/28 07:06:08;;;;;;;;;;;;;;;7.21;100.00;100859.94;5030687;28;20425;-82
2022/11/28 07:08:34;;;;;;;;;;;;;;;7.20;100.00;100864.34;5029322;28;19956;-82
2022/11/28 07:11:07;;;;;;;;;;;;;;;7.21;100.00;100865.19;5030801;28;19917;-82
2022/11/28 07:13:32;;;;;;;;;;;;;;;7.22;100.00;100877.34;5030781;28;19915;-82
2022/11/28 07:15:57;;;;;;;;;;;;;;;7.23;100.00;100879.03;5029750;28;19943;-79
2022/11/28 07:18:23;;;;;;;;;;;;;;;7.24;100.00;100878.09;5028407;28;19913;-82
2022/11/28 07:20:48;;;;;;;;;;;;;;;7.24;100.00;100870.22;5029063;28;19940;-79
2022/11/28 07:23:14;;;;;;;;;;;;;;;7.26;100.00;100876.22;5030115;28;19970;-81
2022/11/28 07:25:39;;;;;;;;;;;;;;;7.27;100.00;100874.44;5024812;28;20438;-82
2022/11/28 07:28:05;;;;;;;;;;;;;;;7.26;100.00;100881.44;5030770;28;20358;-82
2022/11/28 07:30:31;;;;;;;;;;;;;;;7.27;100.00;100870.06;5028566;28;20356;-82
2022/11/28 07:32:56;;;;;;;;;;;;;;;7.26;100.00;100878.00;5030711;28;19963;-82
2022/11/28 07:35:22;;;;;;;;;;;;;;;7.27;100.00;100884.91;5030762;28;20428;-83
2022/11/28 07:37:47;;;;;;;;;;;;;;;7.27;100.00;100888.38;5030458;28;19963;-78
2022/11/28 07:40:12;;;;;;;;;;;;;;;7.28;100.00;100892.66;5030838;28;19912;-78
2022/11/28 07:42:38;;;;;;;;;;;;;;;7.26;100.00;100889.31;5026052;28;19971;-78
2022/11/28 07:45:03;;;;;;;;;;;;;;;7.27;100.00;100885.75;5030545;28;19921;-78
2022/11/28 07:47:29;;;;;;;;;;;;;;;7.26;100.00;100894.53;5029097;28;19928;-79
2022/11/28 07:49:54;;;;;;;;;;;;;;;7.27;100.00;100888.38;5050180;28;19932;-83
2022/11/28 07:52:19;;;;;;;;;;;;;;;7.28;100.00;100891.81;5049283;28;19909;-83
2022/11/28 07:54:45;;;;;;;;;;;;;;;7.27;100.00;100896.22;5030785;28;19924;-83
2022/11/28 07:57:11;;;;;;;;;;;;;;;7.29;100.00;100899.59;5030525;28;20282;-83
2022/11/28 07:59:36;;;;;;;;;;;;;;;7.29;100.00;100903.97;5025378;28;19984;-83
2022/11/28 08:02:07;;;;;;;;;;;;;;;7.30;100.00;100906.50;5030896;28;19978;-82
2022/11/28 08:04:33;;;;;;;;;;;;;;;7.32;100.00;100906.41;5031184;28;19916;-83
2022/11/28 08:06:58;;;;;;;;;;;;;;;7.33;100.00;100906.31;5028968;28;20336;-82
2022/11/28 08:09:24;;;;;;;;;;;;;;;7.33;100.00;100901.09;5030308;28;19916;-83
2022/11/28 08:11:51;;;;;;;;;;;;;;;7.36;100.00;100919.22;5030729;28;19909;-83
2022/11/28 08:14:16;;;;;;;;;;;;;;;7.37;100.00;100913.06;5041547;28;19916;-82
2022/11/28 08:16:43;;;;;;;;;;;;;;;7.37;100.00;100913.06;5022905;28;20396;-83
2022/11/28 08:19:09;;;;;;;;;;;;;;;7.38;100.00;100909.50;5017741;28;19940;-83
2022/11/28 08:21:35;;;;;;;;;;;;;;;7.41;100.00;100913.72;5027039;28;19940;-82
2022/11/28 08:24:01;;;;;;;;;;;;;;;7.41;100.00;100914.56;5029942;28;19928;-83
2022/11/28 08:26:27;;;;;;;;;;;;;;;7.44;100.00;100921.38;5030192;28;19913;-83
2022/11/28 08:28:53;;;;;;;;;;;;;;;7.47;100.00;100916.78;5029212;28;20374;-83
2022/11/28 08:31:19;;;;;;;;;;;;;;;7.49;100.00;100912.31;5016319;28;19953;-83
2022/11/28 08:33:46;;;;;;;;;;;;;;;7.51;100.00;100920.06;5028534;28;20328;-83
2022/11/28 08:36:12;;;;;;;;;;;;;;;7.51;100.00;100920.91;5024281;28;19909;-83
2022/11/28 08:38:37;;;;;;;;;;;;;;;7.52;100.00;100917.34;5010047;28;20380;-83
2022/11/28 08:41:04;;;;;;;;;;;;;;;7.53;100.00;100926.91;5009238;28;20384;-82
2022/11/28 08:43:30;;;;;;;;;;;;;;;7.54;100.00;100928.56;5024864;28;19909;-83
2022/11/28 08:45:55;;;;;;;;;;;;;;;7.54;100.00;100931.19;5010206;28;20004;-83
2022/11/28 08:48:20;;;;;;;;;;;;;;;7.57;100.00;100939.81;5036834;28;20277;-85
2022/11/28 08:50:46;;;;;;;;;;;;;;;7.58;100.00;100931.00;5031195;28;19921;-83
2022/11/28 08:53:11;;;;;;;;;;;;;;;7.59;100.00;100932.69;5014253;28;19913;-81
2022/11/28 08:55:39;;;;;;;;;;;;;;;7.58;100.00;100926.63;5028916;28;19913;-82
2022/11/28 08:58:04;;;;;;;;;;;;;;;7.59;100.00;100919.59;5028636;28;19912;-81
2022/11/28 09:00:30;;;;;;;;;;;;;;;7.60;100.00;100923.91;5010387;28;19910;-81
2022/11/28 09:02:56;;;;;;;;;;;;;;;7.62;100.00;100922.06;5009306;28;19909;-81
2022/11/28 09:05:21;;;;;;;;;;;;;;;7.64;100.00;100922.81;5012555;28;19983;-82
2022/11/28 09:07:46;;;;;;;;;;;;;;;7.67;100.00;100925.25;5017727;28;19916;-82
2022/11/28 09:10:11;;;;;;;;;;;;;;;7.70;100.00;100927.69;5024441;28;19920;-82
2022/11/28 09:12:37;;;;;;;;;;;;;;;7.73;100.00;100930.09;5031784;28;19917;-82
2022/11/28 09:15:05;;;;;;;;;;;;;;;7.76;100.00;100929.91;5032479;28;19920;-82
2022/11/28 09:17:30;;;;;;;;;;;;;;;7.77;100.00;100934.22;5032225;28;19909;-82
2022/11/28 09:19:56;;;;;;;;;;;;;;;7.79;100.00;100942.81;5027406;28;19913;-82
2022/11/28 09:22:21;;;;;;;;;;;;;;;7.80;100.00;100934.03;5016222;28;20649;-82
2022/11/28 09:24:47;;;;;;;;;;;;;;;7.81;100.00;100943.56;5029103;28;20007;-83
2022/11/28 09:27:12;;;;;;;;;;;;;;;7.82;100.00;100942.63;5017663;28;20258;-82
2022/11/28 09:29:37;;;;;;;;;;;;;;;7.84;100.00;100943.38;5033868;28;20042;-80
2022/11/28 09:32:03;;;;;;;;;;;;;;;7.85;100.00;100945.06;5023925;28;20495;-82
2022/11/28 09:34:28;;;;;;;;;;;;;;;7.87;100.00;100948.44;5034107;28;19960;-81
2022/11/28 09:36:53;;;;;;;;;;;;;;;7.90;100.00;100942.16;5015776;28;19959;-82
2022/11/28 09:39:22;;;;;;;;;;;;;;;7.93;100.00;100940.19;5028552;28;19992;-82
2022/11/28 09:41:53;;;;;;;;;;;;;;;7.96;100.00;100936.53;5032172;28;19971;-82
2022/11/28 09:44:36;;;;;;;;;;;;;;;7.99;100.00;100946.84;5023776;28;20007;-81
2022/11/28 09:47:04;;;;;;;;;;;;;;;8.02;100.00;100942.28;5032302;28;19916;-82
2022/11/28 09:49:30;;;;;;;;;;;;;;;8.06;100.00;100954.25;5033416;28;20012;-81
2022/11/28 09:51:59;;;;;;;;;;;;;;;8.07;100.00;100950.69;5031912;28;19908;-81
2022/11/28 09:54:31;;;;;;;;;;;;;;;8.10;100.00;100955.72;5032674;28;19947;-81
2022/11/28 09:56:58;;;;;;;;;;;;;;;8.12;100.00;100951.25;5033750;28;19920;-81
2022/11/28 09:59:24;;;;;;;;;;;;;;;8.14;100.00;100952.00;5032334;28;19909;-81
2022/11/28 10:02:08;;;;;;;;;;;;;;;8.16;100.00;100952.72;5023217;28;19916;-81
2022/11/28 10:04:40;;;;;;;;;;;;;;;8.17;100.00;100949.16;5012706;28;20004;-78
2022/11/28 10:07:24;;;;;;;;;;;;;;;8.18;100.00;100948.22;5012455;28;20411;-81
2022/11/28 10:10:08;;;;;;;;;;;;;;;8.17;100.00;100946.56;5023688;28;20278;-80
2022/11/28 10:13:02;;;;;;;;;;;;;;;8.21;100.00;100941.97;5031889;28;19916;-82
2022/11/28 10:15:46;;;;;;;;;;;;;;;8.26;100.00;100947.75;5007263;28;20552;-81
2022/11/28 10:18:25;;;;;;;;;;;;;;;8.29;100.00;100946.72;5014501;28;20004;-81
2022/11/28 10:20:53;;;;;;;;;;;;;;;8.31;100.00;100943.06;5027974;28;19912;-81
2022/11/28 10:23:23;;;;;;;;;;;;;;;8.35;100.00;100943.72;5031990;28;19917;-84
2022/11/28 10:25:54;;;;;;;;;;;;;;;8.39;100.00;100945.22;5013914;28;19913;-78
2022/11/28 10:28:25;;;;;;;;;;;;;;;8.42;100.00;100945.06;5012066;28;19909;-82
2022/11/28 10:30:53;;;;;;;;;;;;;;;8.46;100.00;100941.28;5015561;28;19912;-82
2022/11/28 10:33:30;;;;;;;;;;;;;;;8.51;100.00;100943.63;5016819;28;19960;-82
2022/11/28 10:35:56;;;;;;;;;;;;;;;8.54;100.00;100941.66;5018030;28;19988;-82
2022/11/28 10:38:24;;;;;;;;;;;;;;;8.54;100.00;100941.66;5012038;28;20258;-82
2022/11/28 10:40:57;;;;;;;;;;;;;;;8.56;100.00;100945.00;5010983;28;20055;-81
2022/11/28 10:43:37;;;;;;;;;;;;;;;8.59;100.00;100952.69;5024546;28;19913;-82
2022/11/28 10:46:21;;;;;;;;;;;;;;;8.63;100.00;100950.69;5032079;28;19913;-78
2022/11/28 10:48:49;;;;;;;;;;;;;;;8.64;100.00;100957.63;5030181;28;20430;-82
2022/11/28 10:51:37;;;;;;;;;;;;;;;8.63;100.00;100955.94;5032344;28;19916;-83
2022/11/28 10:54:08;;;;;;;;;;;;;;;8.61;100.00;100966.53;5019369;28;19940;-79
2022/11/28 10:56:42;;;;;;;;;;;;;;;8.63;100.00;100959.41;5011755;28;19971;-83
2022/11/28 10:59:19;;;;;;;;;;;;;;;8.66;100.00;100964.44;5022706;28;19920;-83
2022/11/28 11:01:45;;;;;;;;;;;;;;;8.68;100.00;100959.09;5028758;28;19939;-83
2022/11/28 11:04:19;;;;;;;;;;;;;;;8.66;100.00;100964.44;5029702;28;20445;-83
2022/11/28 11:06:59;;;;;;;;;;;;;;;8.64;100.00;100962.88;5030530;28;19928;-82
2022/11/28 11:09:25;;;;;;;;;;;;;;;8.66;100.00;100964.44;5038706;28;20401;-82
2022/11/28 11:11:56;;;;;;;;;;;;;;;8.67;100.00;100971.38;5013234;28;19909;-83
2022/11/28 11:14:35;;;;;;;;;;;;;;;8.67;100.00;100958.28;5011454;28;19920;-83
2022/11/28 11:17:00;;;;;;;;;;;;;;;8.66;100.00;100953.97;5024170;28;20296;-82
2022/11/28 11:19:28;;;;;;;;;;;;;;;8.67;100.00;100953.03;5032330;28;19909;-83
2022/11/28 11:22:20;;;;;;;;;;;;;;;8.66;100.00;100956.59;5031628;28;20301;-83
2022/11/28 11:25:04;;;;;;;;;;;;;;;8.70;100.00;100955.44;5013289;28;19917;-82
2022/11/28 11:27:30;;;;;;;;;;;;;;;8.69;100.00;100951.13;5039630;28;19914;-82
2022/11/28 11:29:55;;;;;;;;;;;;;;;8.71;100.00;100954.50;5028049;28;19920;-82
2022/11/28 11:32:25;;;;;;;;;;;;;;;8.72;100.00;100958.81;5028853;28;20302;-83
2022/11/28 11:34:52;;;;;;;;;;;;;;;8.76;100.00;100948.97;5030243;28;20362;-82
2022/11/28 11:37:20;;;;;;;;;;;;;;;8.77;100.00;100940.16;5033643;28;19917;-79
2022/11/28 11:39:48;;;;;;;;;;;;;;;8.78;100.00;100941.81;5031702;28;19909;-82
2022/11/28 11:42:18;;;;;;;;;;;;;;;8.80;100.00;100950.44;5030993;28;20002;-82
2022/11/28 11:44:44;;;;;;;;;;;;;;;8.82;100.00;100943.34;5015479;28;19924;-82
2022/11/28 11:47:09;;;;;;;;;;;;;;;8.84;100.00;100945.88;5012899;28;19913;-81
2022/11/28 11:49:36;;;;;;;;;;;;;;;8.87;100.00;100945.66;5011683;28;19910;-81
2022/11/28 11:52:14;;;;;;;;;;;;;;;8.91;100.00;100947.13;5027495;28;20049;-82
2022/11/28 11:55:01;;;;;;;;;;;;;;;8.94;100.00;100947.78;5016573;28;19917;-82
2022/11/28 11:57:35;;;;;;;;;;;;;;;8.96;100.00;100955.53;5030048;28;20384;-82
2022/11/28 12:00:13;;;;;;;;;;;;;;;8.97;100.00;100957.22;5024487;28;20322;-82
2022/11/28 12:02:44;;;;;;;;;;;;;;;8.96;100.00;100966.03;5019098;28;20360;-82
2022/11/28 12:05:17;;;;;;;;;;;;;;;8.95;100.00;100959.13;5028828;28;20008;-83
2022/11/28 12:08:03;;;;;;;;;;;;;;;8.96;100.00;100960.78;5029602;28;20010;-83
2022/11/28 12:10:32;;;;;;;;;;;;;;;8.97;100.00;100957.22;5030844;28;19897;-82
2022/11/28 12:12:58;;;;;;;;;;;;;;;8.95;100.00;100959.97;5029982;28;20027;-82
2022/11/28 12:15:31;;;;;;;;;;;;;;;8.96;100.00;100959.00;5029564;28;20472;-82
2022/11/28 12:18:14;;;;;;;;;;;;;;;8.98;100.00;100958.91;5020091;28;19910;-82
2022/11/28 12:20:45;;;;;;;;;;;;;;;8.99;100.00;100961.44;5009586;28;19944;-81
2022/11/28 12:23:19;;;;;;;;;;;;;;;9.00;100.00;100964.91;5009974;28;19921;-82
2022/11/28 12:26:03;;;;;;;;;;;;;;;9.02;100.00;100968.25;5009695;28;20341;-82
2022/11/28 12:28:37;;;;;;;;;;;;;;;9.03;100.00;100956.81;5020545;28;20386;-82
2022/11/28 12:31:05;;;;;;;;;;;;;;;9.03;100.00;100959.44;5039312;28;19913;-82
2022/11/28 12:33:49;;;;;;;;;;;;;;;9.05;100.00;100960.19;5013796;28;20098;-83
2022/11/28 12:36:27;;;;;;;;;;;;;;;9.06;100.00;100961.88;5010232;28;19916;-82
2022/11/28 12:38:59;;;;;;;;;;;;;;;9.05;100.00;100961.03;5029676;28;19909;-80
2022/11/28 12:41:33;;;;;;;;;;;;;;;9.07;100.00;100958.31;5008715;28;19909;-82
2022/11/28 12:44:17;;;;;;;;;;;;;;;9.09;100.00;100961.66;5009819;28;19916;-83
2022/11/28 12:46:51;;;;;;;;;;;;;;;9.09;100.00;100957.25;5009827;28;19966;-82